createdAt,value
2023-06-16T00:00:26.268Z,168.13
2023-06-16T00:01:26.317Z,167.94
2023-06-16T00:02:26.340Z,167.65
2023-06-16T00:03:26.485Z,167.68
2023-06-16T00:04:26.406Z,167.71
2023-06-16T00:05:26.517Z,169.61
2023-06-16T00:06:26.479Z,170.14
2023-06-16T00:07:26.566Z,169.86
2023-06-16T00:08:26.585Z,169.32
2023-06-16T00:09:26.639Z,169.14
2023-06-16T00:10:26.683Z,169.60
2023-06-16T00:11:26.726Z,169.32
2023-06-16T00:12:26.757Z,169.61
2023-06-16T00:13:26.816Z,169.93
2023-06-16T00:14:26.845Z,169.91
2023-06-16T00:15:26.891Z,171.25
2023-06-16T00:16:26.922Z,170.09
2023-06-16T00:17:27.013Z,170.31
2023-06-16T00:18:27.053Z,169.96
2023-06-16T00:19:27.079Z,169.64
2023-06-16T00:20:27.343Z,169.21
2023-06-16T00:21:27.233Z,169.98
2023-06-16T00:22:27.171Z,169.93
2023-06-16T00:23:27.248Z,170.50
2023-06-16T00:24:27.356Z,170.59
2023-06-16T00:25:27.324Z,169.34
2023-06-16T00:26:27.397Z,168.58
2023-06-16T00:27:27.369Z,168.34
2023-06-16T00:28:27.440Z,169.69
2023-06-16T00:29:27.495Z,168.63
2023-06-16T00:30:27.530Z,167.75
2023-06-16T00:31:27.614Z,170.92
2023-06-16T00:32:27.625Z,168.18
2023-06-16T00:33:27.671Z,169.28
2023-06-16T00:34:27.730Z,170.10
2023-06-16T00:35:27.740Z,169.82
2023-06-16T00:36:27.837Z,169.19
2023-06-16T00:37:27.836Z,170.93
2023-06-16T00:38:27.914Z,168.94
2023-06-16T00:39:27.922Z,169.34
2023-06-16T00:40:27.965Z,171.43
2023-06-16T00:41:28.026Z,170.15
2023-06-16T00:42:28.089Z,169.47
2023-06-16T00:43:28.139Z,171.26
2023-06-16T00:44:28.181Z,170.48
2023-06-16T00:45:28.208Z,170.41
2023-06-16T00:46:28.269Z,170.10
2023-06-16T00:47:28.390Z,169.97
2023-06-16T00:48:28.375Z,170.01
2023-06-16T00:49:28.393Z,169.44
2023-06-16T00:50:28.485Z,170.02
2023-06-16T00:51:28.502Z,169.25
2023-06-16T00:52:28.564Z,170.45
2023-06-16T00:53:28.611Z,169.76
2023-06-16T00:54:28.681Z,169.56
2023-06-16T00:55:28.706Z,169.94
2023-06-16T00:56:28.743Z,170.02
2023-06-16T00:57:28.816Z,169.05
2023-06-16T00:58:28.793Z,169.30
2023-06-16T00:59:28.875Z,170.28
2023-06-16T01:00:28.940Z,169.51
2023-06-16T01:01:28.975Z,169.20
2023-06-16T01:02:29.092Z,172.19
2023-06-16T01:03:29.149Z,171.50
2023-06-16T01:04:29.107Z,170.71
2023-06-16T01:05:29.166Z,170.06
2023-06-16T01:06:29.218Z,170.35
2023-06-16T01:07:29.261Z,170.50
2023-06-16T01:08:29.303Z,171.26
2023-06-16T01:09:29.390Z,170.79
2023-06-16T01:10:29.429Z,171.24
2023-06-16T01:11:29.483Z,171.50
2023-06-16T01:12:29.526Z,172.29
2023-06-16T01:13:29.567Z,175.02
2023-06-16T01:14:29.596Z,173.47
2023-06-16T01:15:29.655Z,173.48
2023-06-16T01:16:29.803Z,172.32
2023-06-16T01:17:29.804Z,174.72
2023-06-16T01:18:29.792Z,173.89
2023-06-16T01:19:29.832Z,171.75
2023-06-16T01:20:29.868Z,172.30
2023-06-16T01:21:29.919Z,171.81
2023-06-16T01:22:30.019Z,172.81
2023-06-16T01:23:30.035Z,172.20
2023-06-16T01:24:30.172Z,172.11
2023-06-16T01:25:30.103Z,171.57
2023-06-16T01:26:30.160Z,171.76
2023-06-16T01:27:30.195Z,173.23
2023-06-16T01:28:30.271Z,171.00
2023-06-16T01:29:30.287Z,171.92
2023-06-16T01:30:30.352Z,171.77
2023-06-16T01:31:30.413Z,170.46
2023-06-16T01:32:30.478Z,171.64
2023-06-16T01:33:30.487Z,171.97
2023-06-16T01:34:30.549Z,172.32
2023-06-16T01:35:30.624Z,173.57
2023-06-16T01:36:30.647Z,172.97
2023-06-16T01:37:30.692Z,171.64
2023-06-16T01:38:30.728Z,171.56
2023-06-16T01:39:30.825Z,171.13
2023-06-16T01:40:30.855Z,170.21
2023-06-16T01:41:30.957Z,170.10
2023-06-16T01:42:30.946Z,169.90
2023-06-16T01:43:30.990Z,169.55
2023-06-16T01:44:31.054Z,169.25
2023-06-16T01:45:31.095Z,168.74
2023-06-16T01:46:31.184Z,169.84
2023-06-16T01:47:31.369Z,167.71
2023-06-16T01:48:31.243Z,165.50
2023-06-16T01:49:31.250Z,164.03
2023-06-16T01:50:31.332Z,162.57
2023-06-16T01:51:31.364Z,161.95
2023-06-16T01:52:31.460Z,163.05
2023-06-16T01:53:31.516Z,162.98
2023-06-16T01:54:31.531Z,162.66
2023-06-16T01:55:31.623Z,161.98
2023-06-16T01:56:31.654Z,160.51
2023-06-16T01:57:31.706Z,160.31
2023-06-16T01:58:31.768Z,160.71
2023-06-16T01:59:31.857Z,163.02
2023-06-16T02:00:31.926Z,163.33
2023-06-16T02:01:31.975Z,162.77
2023-06-16T02:02:32.088Z,160.85
2023-06-16T02:03:32.131Z,159.38
2023-06-16T02:04:32.105Z,159.78
2023-06-16T02:05:32.160Z,159.36
2023-06-16T02:06:32.235Z,159.98
2023-06-16T02:07:32.283Z,159.64
2023-06-16T02:08:32.892Z,159.34
2023-06-16T02:09:32.370Z,156.93
2023-06-16T02:10:32.465Z,159.32
2023-06-16T02:11:32.490Z,158.13
2023-06-16T02:12:32.538Z,156.21
2023-06-16T02:13:32.568Z,155.50
2023-06-16T02:14:32.627Z,155.14
2023-06-16T02:15:32.701Z,154.39
2023-06-16T02:16:32.864Z,154.76
2023-06-16T02:17:32.834Z,153.56
2023-06-16T02:18:32.896Z,155.94
2023-06-16T02:19:32.884Z,156.00
2023-06-16T02:20:32.971Z,155.43
2023-06-16T02:21:33.048Z,159.64
2023-06-16T02:22:33.058Z,157.55
2023-06-16T02:23:33.115Z,157.01
2023-06-16T02:24:33.240Z,158.33
2023-06-16T02:25:33.245Z,160.25
2023-06-16T02:26:33.272Z,160.30
2023-06-16T02:27:33.339Z,160.05
2023-06-16T02:28:33.406Z,160.58
2023-06-16T02:29:33.496Z,160.42
2023-06-16T02:30:33.492Z,159.71
2023-06-16T02:31:33.585Z,161.71
2023-06-16T02:32:33.605Z,162.27
2023-06-16T02:33:33.753Z,162.33
2023-06-16T02:34:35.411Z,161.45
2023-06-16T02:35:33.792Z,162.48
2023-06-16T02:36:33.860Z,163.24
2023-06-16T02:37:33.861Z,163.38
2023-06-16T02:38:33.913Z,162.75
2023-06-16T02:39:33.966Z,162.09
2023-06-16T02:40:34.033Z,162.59
2023-06-16T02:41:34.102Z,163.86
2023-06-16T02:42:34.179Z,163.48
2023-06-16T02:43:34.180Z,164.02
2023-06-16T02:44:34.236Z,164.41
2023-06-16T02:45:34.309Z,162.44
2023-06-16T02:46:34.414Z,161.73
2023-06-16T02:47:34.450Z,163.26
2023-06-16T02:48:34.495Z,163.52
2023-06-16T02:49:34.521Z,162.64
2023-06-16T02:50:34.605Z,163.97
2023-06-16T02:51:34.662Z,164.40
2023-06-16T02:52:34.675Z,163.49
2023-06-16T02:53:34.836Z,163.97
2023-06-16T02:54:34.798Z,165.22
2023-06-16T02:55:34.856Z,164.73
2023-06-16T02:56:34.911Z,164.00
2023-06-16T02:57:34.971Z,163.06
2023-06-16T02:58:35.026Z,163.89
2023-06-16T02:59:35.075Z,162.66
2023-06-16T03:00:35.111Z,162.86
2023-06-16T03:01:35.226Z,163.95
2023-06-16T03:02:35.301Z,163.72
2023-06-16T03:03:35.335Z,163.37
2023-06-16T03:04:35.380Z,163.57
2023-06-16T03:05:35.412Z,164.28
2023-06-16T03:06:35.439Z,164.29
2023-06-16T03:07:35.485Z,163.17
2023-06-16T03:08:35.535Z,164.57
2023-06-16T03:09:35.642Z,165.81
2023-06-16T03:10:35.685Z,165.49
2023-06-16T03:11:35.766Z,166.37
2023-06-16T03:12:35.764Z,167.01
2023-06-16T03:13:35.792Z,166.20
2023-06-16T03:14:35.874Z,163.97
2023-06-16T03:15:35.892Z,165.51
2023-06-16T03:16:35.996Z,165.74
2023-06-16T03:17:36.134Z,164.70
2023-06-16T03:18:36.094Z,164.76
2023-06-16T03:19:36.138Z,164.43
2023-06-16T03:20:36.214Z,163.53
2023-06-16T03:21:36.232Z,164.69
2023-06-16T03:22:36.252Z,165.85
2023-06-16T03:23:36.335Z,164.88
2023-06-16T03:24:36.372Z,164.12
2023-06-16T03:25:36.487Z,163.66
2023-06-16T03:26:36.462Z,163.93
2023-06-16T03:27:36.507Z,164.25
2023-06-16T03:28:36.586Z,163.94
2023-06-16T03:29:36.631Z,165.48
2023-06-16T03:30:36.692Z,165.83
2023-06-16T03:31:36.745Z,165.81
2023-06-16T03:32:36.802Z,166.85
2023-06-16T03:33:36.858Z,166.79
2023-06-16T03:34:36.903Z,167.46
2023-06-16T03:35:36.989Z,166.04
2023-06-16T03:36:36.982Z,165.75
2023-06-16T03:37:37.015Z,166.68
2023-06-16T03:38:37.068Z,165.36
2023-06-16T03:39:37.086Z,167.36
2023-06-16T03:40:37.181Z,166.45
2023-06-16T03:41:37.222Z,166.28
2023-06-16T03:42:37.270Z,165.73
2023-06-16T03:43:37.289Z,165.52
2023-06-16T03:44:37.385Z,167.37
2023-06-16T03:45:37.426Z,167.55
2023-06-16T03:46:37.532Z,167.50
2023-06-16T03:47:37.564Z,167.75
2023-06-16T03:48:37.576Z,167.11
2023-06-16T03:49:37.600Z,168.35
2023-06-16T03:50:37.703Z,167.59
2023-06-16T03:51:37.709Z,168.94
2023-06-16T03:52:37.765Z,166.73
2023-06-16T03:53:37.857Z,167.08
2023-06-16T03:54:37.860Z,167.31
2023-06-16T03:55:37.935Z,168.09
2023-06-16T03:56:37.994Z,168.32
2023-06-16T03:57:38.030Z,166.41
2023-06-16T03:58:38.087Z,167.10
2023-06-16T03:59:38.158Z,166.81
2023-06-16T04:00:38.212Z,165.69
2023-06-16T04:01:38.250Z,167.51
2023-06-16T04:02:38.397Z,167.79
2023-06-16T04:03:38.322Z,164.47
2023-06-16T04:04:38.371Z,166.57
2023-06-16T04:05:38.420Z,164.65
2023-06-16T04:06:38.488Z,167.25
2023-06-16T04:07:38.522Z,165.43
2023-06-16T04:08:38.589Z,164.57
2023-06-16T04:09:38.641Z,166.44
2023-06-16T04:10:38.676Z,166.51
2023-06-16T04:11:38.701Z,165.20
2023-06-16T04:12:38.784Z,164.88
2023-06-16T04:13:38.805Z,165.16
2023-06-16T04:14:38.880Z,166.90
2023-06-16T04:15:38.935Z,165.86
2023-06-16T04:16:38.991Z,166.38
2023-06-16T04:17:39.067Z,167.98
2023-06-16T04:18:39.085Z,168.76
2023-06-16T04:19:39.159Z,168.49
2023-06-16T04:20:39.188Z,166.86
2023-06-16T04:21:39.229Z,168.56
2023-06-16T04:22:39.276Z,168.76
2023-06-16T04:23:39.338Z,166.74
2023-06-16T04:24:39.407Z,167.32
2023-06-16T04:25:39.444Z,166.69
2023-06-16T04:26:39.499Z,165.58
2023-06-16T04:27:39.558Z,166.16
2023-06-16T04:28:39.589Z,167.47
2023-06-16T04:29:39.655Z,165.32
2023-06-16T04:30:39.702Z,167.23
2023-06-16T04:31:39.766Z,166.00
2023-06-16T04:32:39.849Z,167.71
2023-06-16T04:33:39.846Z,168.45
2023-06-16T04:34:39.883Z,167.97
2023-06-16T04:35:39.987Z,167.49
2023-06-16T04:36:40.016Z,166.12
2023-06-16T04:37:40.052Z,167.24
2023-06-16T04:38:40.097Z,169.42
2023-06-16T04:39:40.180Z,166.59
2023-06-16T04:40:40.212Z,168.63
2023-06-16T04:41:40.256Z,167.80
2023-06-16T04:42:40.336Z,167.08
2023-06-16T04:43:40.366Z,169.33
2023-06-16T04:44:40.449Z,168.02
2023-06-16T04:45:40.518Z,168.04
2023-06-16T04:46:40.592Z,167.31
2023-06-16T04:47:40.645Z,168.30
2023-06-16T04:48:40.630Z,168.70
2023-06-16T04:49:40.700Z,166.70
2023-06-16T04:50:40.963Z,168.35
2023-06-16T04:51:40.777Z,166.47
2023-06-16T04:52:40.814Z,167.80
2023-06-16T04:53:40.862Z,167.41
2023-06-16T04:54:40.972Z,168.07
2023-06-16T04:55:40.987Z,168.02
2023-06-16T04:56:41.026Z,166.90
2023-06-16T04:57:41.101Z,170.06
2023-06-16T04:58:41.097Z,168.83
2023-06-16T04:59:41.159Z,171.21
2023-06-16T05:00:41.239Z,171.86
2023-06-16T05:01:41.276Z,170.57
2023-06-16T05:02:41.428Z,169.78
2023-06-16T05:03:41.428Z,169.16
2023-06-16T05:04:41.401Z,168.60
2023-06-16T05:05:41.485Z,169.35
2023-06-16T05:06:41.514Z,170.53
2023-06-16T05:07:41.561Z,171.66
2023-06-16T05:08:41.780Z,170.92
2023-06-16T05:09:41.697Z,170.46
2023-06-16T05:10:41.745Z,172.23
2023-06-16T05:11:41.786Z,168.90
2023-06-16T05:12:41.859Z,169.73
2023-06-16T05:13:42.003Z,172.85
2023-06-16T05:14:41.984Z,171.93
2023-06-16T05:15:42.051Z,172.31
2023-06-16T05:16:42.102Z,171.62
2023-06-16T05:17:42.181Z,169.66
2023-06-16T05:18:42.354Z,171.34
2023-06-16T05:19:42.233Z,170.81
2023-06-16T05:20:42.297Z,170.41
2023-06-16T05:21:42.353Z,170.66
2023-06-16T05:22:42.396Z,171.64
2023-06-16T05:23:42.459Z,170.31
2023-06-16T05:24:42.561Z,170.93
2023-06-16T05:25:42.568Z,172.35
2023-06-16T05:26:42.612Z,171.22
2023-06-16T05:27:42.668Z,170.20
2023-06-16T05:28:42.730Z,171.42
2023-06-16T05:29:42.779Z,171.22
2023-06-16T05:30:42.876Z,170.50
2023-06-16T05:31:42.899Z,169.70
2023-06-16T05:32:42.967Z,171.31
2023-06-16T05:33:43.033Z,170.96
2023-06-16T05:34:43.053Z,171.48
2023-06-16T05:35:43.111Z,171.08
2023-06-16T05:36:43.193Z,169.40
2023-06-16T05:37:43.267Z,172.55
2023-06-16T05:38:43.281Z,172.56
2023-06-16T05:39:43.299Z,173.44
2023-06-16T05:40:43.353Z,172.89
2023-06-16T05:41:43.384Z,174.32
2023-06-16T05:42:43.442Z,172.17
2023-06-16T05:43:43.492Z,138.44
2023-06-16T05:44:43.509Z,108.43
2023-06-16T05:45:43.562Z,76.96
2023-06-16T05:46:43.560Z,55.29
2023-06-16T05:47:43.632Z,45.64
2023-06-16T05:48:45.431Z,45.94
2023-06-16T05:49:43.705Z,50.00
2023-06-16T05:50:43.698Z,51.68
2023-06-16T05:51:43.782Z,60.32
2023-06-16T05:52:43.702Z,63.16
2023-06-16T05:53:43.709Z,60.74
2023-06-16T05:54:43.780Z,54.70
2023-06-16T05:55:43.761Z,51.70
2023-06-16T05:56:43.823Z,56.75
2023-06-16T05:57:43.802Z,50.76
2023-06-16T05:58:43.831Z,51.97
2023-06-16T05:59:43.879Z,54.52
2023-06-16T06:00:43.864Z,60.34
2023-06-16T06:01:43.865Z,63.30
2023-06-16T06:02:44.040Z,55.92
2023-06-16T06:03:44.032Z,49.56
2023-06-16T06:04:43.949Z,49.00
2023-06-16T06:05:43.968Z,51.45
2023-06-16T06:06:43.987Z,52.66
2023-06-16T06:07:43.990Z,60.27
2023-06-16T06:08:43.991Z,59.96
2023-06-16T06:09:44.048Z,50.00
2023-06-16T06:10:44.028Z,50.08
2023-06-16T06:11:44.056Z,50.43
2023-06-16T06:12:44.083Z,54.32
2023-06-16T06:13:44.118Z,58.21
2023-06-16T06:14:44.097Z,62.85
2023-06-16T06:15:44.174Z,65.35
2023-06-16T06:16:44.175Z,56.17
2023-06-16T06:17:44.260Z,43.60
2023-06-16T06:18:44.189Z,44.43
2023-06-16T06:19:44.180Z,44.12
2023-06-16T06:20:44.240Z,42.27
2023-06-16T06:21:44.281Z,47.84
2023-06-16T06:22:45.511Z,53.24
2023-06-16T06:23:44.333Z,60.42
2023-06-16T06:24:44.345Z,65.86
2023-06-16T06:25:44.338Z,72.17
2023-06-16T06:26:44.430Z,78.09
2023-06-16T06:27:44.323Z,83.97
2023-06-16T06:28:44.290Z,90.93
2023-06-16T06:29:44.304Z,94.26
2023-06-16T06:30:44.303Z,99.45
2023-06-16T06:31:44.286Z,103.99
2023-06-16T06:32:44.310Z,108.14
2023-06-16T06:33:44.253Z,111.37
2023-06-16T06:34:44.255Z,115.12
2023-06-16T06:35:44.267Z,118.68
2023-06-16T06:36:44.261Z,118.29
2023-06-16T06:37:44.223Z,122.20
2023-06-16T06:38:44.215Z,123.49
2023-06-16T06:39:44.210Z,127.24
2023-06-16T06:40:44.237Z,130.30
2023-06-16T06:41:44.184Z,130.93
2023-06-16T06:42:44.186Z,133.54
2023-06-16T06:43:44.184Z,134.63
2023-06-16T06:44:44.183Z,135.17
2023-06-16T06:45:44.168Z,134.90
2023-06-16T06:46:44.291Z,135.66
2023-06-16T06:47:44.230Z,136.92
2023-06-16T06:48:44.570Z,139.57
2023-06-16T06:49:44.201Z,141.42
2023-06-16T06:50:44.160Z,144.47
2023-06-16T06:51:44.149Z,147.49
2023-06-16T06:52:44.120Z,154.42
2023-06-16T06:53:44.147Z,153.33
2023-06-16T06:54:44.148Z,156.72
2023-06-16T06:55:44.091Z,149.75
2023-06-16T06:56:44.136Z,141.54
2023-06-16T06:57:44.078Z,135.04
2023-06-16T06:58:44.089Z,134.94
2023-06-16T06:59:44.066Z,136.79
2023-06-16T07:00:44.113Z,136.16
2023-06-16T07:01:44.090Z,133.84
2023-06-16T07:02:44.109Z,137.16
2023-06-16T07:03:44.186Z,124.51
2023-06-16T07:04:44.017Z,118.82
2023-06-16T07:05:44.069Z,113.97
2023-06-16T07:06:44.009Z,116.66
2023-06-16T07:07:44.031Z,121.60
2023-06-16T07:08:44.071Z,121.47
2023-06-16T07:09:44.006Z,120.17
2023-06-16T07:10:44.034Z,119.63
2023-06-16T07:11:44.002Z,121.51
2023-06-16T07:12:43.989Z,125.04
2023-06-16T07:13:44.000Z,119.61
2023-06-16T07:14:44.000Z,118.89
2023-06-16T07:15:44.089Z,114.83
2023-06-16T07:16:43.969Z,123.93
2023-06-16T07:17:43.991Z,117.71
2023-06-16T07:18:43.971Z,117.68
2023-06-16T07:19:43.943Z,115.62
2023-06-16T07:20:43.944Z,115.47
2023-06-16T07:21:43.922Z,119.33
2023-06-16T07:22:43.937Z,119.34
2023-06-16T07:23:43.924Z,122.57
2023-06-16T07:24:43.963Z,103.44
2023-06-16T07:25:43.905Z,85.12
2023-06-16T07:26:43.896Z,73.32
2023-06-16T07:27:43.905Z,55.02
2023-06-16T07:28:44.042Z,50.07
2023-06-16T07:29:43.873Z,54.47
2023-06-16T07:30:43.861Z,52.12
2023-06-16T07:31:43.868Z,47.14
2023-06-16T07:32:43.851Z,48.42
2023-06-16T07:33:43.861Z,50.00
2023-06-16T07:34:43.858Z,42.08
2023-06-16T07:35:44.005Z,41.04
2023-06-16T07:36:43.833Z,46.34
2023-06-16T07:37:43.800Z,40.56
2023-06-16T07:38:43.821Z,46.57
2023-06-16T07:39:43.786Z,50.67
2023-06-16T07:40:43.821Z,54.05
2023-06-16T07:41:43.826Z,48.66
2023-06-16T07:42:43.843Z,53.23
2023-06-16T07:43:43.824Z,43.91
2023-06-16T07:44:43.878Z,28.85
2023-06-16T07:45:43.999Z,32.09
2023-06-16T07:46:44.022Z,41.38
2023-06-16T07:47:44.016Z,53.08
2023-06-16T07:48:44.039Z,62.00
2023-06-16T07:49:44.044Z,70.05
2023-06-16T07:50:44.017Z,75.39
2023-06-16T07:51:44.098Z,83.84
2023-06-16T07:52:44.062Z,94.21
2023-06-16T07:53:44.152Z,104.08
2023-06-16T07:54:44.188Z,110.02
2023-06-16T07:55:44.249Z,110.37
2023-06-16T07:56:44.288Z,120.40
2023-06-16T07:57:44.324Z,128.24
2023-06-16T07:58:44.390Z,132.93
2023-06-16T07:59:44.361Z,138.62
2023-06-16T08:00:44.377Z,141.01
2023-06-16T08:01:44.385Z,145.36
2023-06-16T08:02:44.488Z,147.45
2023-06-16T08:03:44.667Z,149.93
2023-06-16T08:04:44.441Z,149.96
2023-06-16T08:05:44.458Z,153.95
2023-06-16T08:06:44.440Z,156.90
2023-06-16T08:07:44.473Z,160.39
2023-06-16T08:08:44.518Z,161.52
2023-06-16T08:09:44.521Z,163.10
2023-06-16T08:10:44.534Z,164.90
2023-06-16T08:11:44.532Z,167.52
2023-06-16T08:12:44.550Z,169.90
2023-06-16T08:13:44.549Z,170.04
2023-06-16T08:14:44.542Z,171.34
2023-06-16T08:15:44.569Z,172.90
2023-06-16T08:16:44.547Z,170.76
2023-06-16T08:17:44.659Z,168.35
2023-06-16T08:18:44.586Z,160.22
2023-06-16T08:19:44.565Z,155.88
2023-06-16T08:20:44.601Z,153.49
2023-06-16T08:21:44.953Z,149.83
2023-06-16T08:22:44.651Z,147.97
2023-06-16T08:23:44.642Z,133.38
2023-06-16T08:24:44.659Z,130.74
2023-06-16T08:25:44.726Z,127.51
2023-06-16T08:26:44.867Z,125.63
2023-06-16T08:27:44.817Z,117.51
2023-06-16T08:28:44.893Z,108.28
2023-06-16T08:29:44.965Z,112.26
2023-06-16T08:30:44.962Z,116.98
2023-06-16T08:31:45.272Z,120.36
2023-06-16T08:32:45.120Z,120.32
2023-06-16T08:33:45.122Z,119.81
2023-06-16T08:34:45.141Z,121.43
2023-06-16T08:35:45.218Z,121.99
2023-06-16T08:36:45.821Z,120.43
2023-06-16T08:37:45.267Z,121.41
2023-06-16T08:38:45.315Z,122.98
2023-06-16T08:39:45.383Z,127.89
2023-06-16T08:40:45.446Z,131.03
2023-06-16T08:41:45.444Z,129.04
2023-06-16T08:42:45.479Z,126.69
2023-06-16T08:43:45.530Z,126.22
2023-06-16T08:44:45.546Z,127.85
2023-06-16T08:45:45.595Z,131.93
2023-06-16T08:46:45.674Z,136.35
2023-06-16T08:47:45.638Z,126.47
2023-06-16T08:48:45.659Z,120.69
2023-06-16T08:49:45.683Z,111.67
2023-06-16T08:50:46.039Z,104.79
2023-06-16T08:51:45.841Z,104.15
2023-06-16T08:52:46.197Z,110.16
2023-06-16T08:53:45.883Z,109.47
2023-06-16T08:54:45.916Z,112.01
2023-06-16T08:55:45.966Z,116.85
2023-06-16T08:56:45.988Z,122.13
2023-06-16T08:57:46.054Z,128.60
2023-06-16T08:58:46.096Z,136.58
2023-06-16T08:59:46.123Z,139.01
2023-06-16T09:00:46.119Z,148.33
2023-06-16T09:01:46.131Z,153.58
2023-06-16T09:02:46.249Z,158.84
2023-06-16T09:03:46.267Z,159.51
2023-06-16T09:04:46.189Z,156.77
2023-06-16T09:05:46.267Z,158.58
2023-06-16T09:06:46.297Z,162.22
2023-06-16T09:07:46.387Z,162.87
2023-06-16T09:08:46.411Z,161.39
2023-06-16T09:09:46.487Z,167.33
2023-06-16T09:10:46.529Z,174.80
2023-06-16T09:11:46.672Z,177.97
2023-06-16T09:12:46.575Z,177.88
2023-06-16T09:13:46.631Z,181.49
2023-06-16T09:14:46.670Z,187.36
2023-06-16T09:15:46.700Z,190.20
2023-06-16T09:16:46.875Z,192.66
2023-06-16T09:17:46.804Z,195.82
2023-06-16T09:18:46.812Z,197.09
2023-06-16T09:19:46.876Z,199.48
2023-06-16T09:20:46.853Z,200.25
2023-06-16T09:21:48.618Z,199.77
2023-06-16T09:22:46.874Z,198.39
2023-06-16T09:23:46.906Z,199.63
2023-06-16T09:24:46.865Z,201.37
2023-06-16T09:25:46.868Z,200.28
2023-06-16T09:26:46.917Z,199.42
2023-06-16T09:27:46.860Z,200.79
2023-06-16T09:28:46.819Z,200.13
2023-06-16T09:29:46.845Z,199.57
2023-06-16T09:30:48.944Z,202.85
2023-06-16T09:31:46.821Z,203.19
2023-06-16T09:32:46.891Z,204.69
2023-06-16T09:33:46.791Z,206.27
2023-06-16T09:34:46.812Z,209.38
2023-06-16T09:35:46.801Z,215.34
2023-06-16T09:36:46.763Z,212.46
2023-06-16T09:37:46.795Z,204.53
2023-06-16T09:38:46.760Z,200.24
2023-06-16T09:39:46.773Z,199.10
2023-06-16T09:40:46.762Z,196.69
2023-06-16T09:41:46.801Z,192.55
2023-06-16T09:42:46.745Z,185.09
2023-06-16T09:43:46.790Z,183.24
2023-06-16T09:44:46.730Z,181.35
2023-06-16T09:45:46.779Z,177.50
2023-06-16T09:46:46.742Z,174.04
2023-06-16T09:47:47.837Z,169.08
2023-06-16T09:48:47.540Z,165.53
2023-06-16T09:49:47.093Z,163.87
2023-06-16T09:50:47.804Z,157.71
2023-06-16T09:51:47.034Z,154.02
2023-06-16T09:52:46.780Z,152.26
2023-06-16T09:53:46.862Z,155.39
2023-06-16T09:54:46.883Z,158.08
2023-06-16T09:55:46.908Z,159.71
2023-06-16T09:56:47.029Z,163.17
2023-06-16T09:57:47.125Z,166.25
2023-06-16T09:58:47.107Z,168.72
2023-06-16T09:59:47.190Z,171.18
2023-06-16T10:00:47.213Z,171.66
2023-06-16T10:01:47.263Z,172.19
2023-06-16T10:02:47.410Z,174.30
2023-06-16T10:03:47.397Z,176.03
2023-06-16T10:04:47.366Z,177.17
2023-06-16T10:05:47.442Z,177.92
2023-06-16T10:06:47.480Z,177.61
2023-06-16T10:07:47.487Z,177.08
2023-06-16T10:08:47.501Z,179.37
2023-06-16T10:10:02.891Z,181.97
2023-06-16T10:10:48.542Z,182.05
2023-06-16T10:11:47.557Z,182.38
2023-06-16T10:12:47.606Z,183.25
2023-06-16T10:13:47.503Z,184.08
2023-06-16T10:14:47.518Z,185.22
2023-06-16T10:15:47.517Z,186.87
2023-06-16T10:16:47.535Z,190.95
2023-06-16T10:17:47.617Z,192.19
2023-06-16T10:18:47.563Z,193.43
2023-06-16T10:19:47.459Z,194.42
2023-06-16T10:20:47.499Z,194.04
2023-06-16T10:21:47.484Z,195.26
2023-06-16T10:22:47.485Z,194.72
2023-06-16T10:23:47.498Z,195.59
2023-06-16T10:24:47.441Z,196.96
2023-06-16T10:25:47.449Z,199.34
2023-06-16T10:26:47.442Z,200.30
2023-06-16T10:27:47.442Z,200.01
2023-06-16T10:28:47.405Z,197.88
2023-06-16T10:29:47.439Z,199.17
2023-06-16T10:30:47.435Z,198.37
2023-06-16T10:31:47.483Z,200.00
2023-06-16T10:32:47.467Z,197.26
2023-06-16T10:33:47.474Z,197.84
2023-06-16T10:34:47.476Z,200.00
2023-06-16T10:35:47.507Z,190.85
2023-06-16T10:36:47.569Z,175.81
2023-06-16T10:37:47.565Z,159.14
2023-06-16T10:38:47.605Z,153.36
2023-06-16T10:39:47.655Z,150.38
2023-06-16T10:40:47.622Z,150.30
2023-06-16T10:41:47.625Z,150.66
2023-06-16T10:42:47.640Z,152.90
2023-06-16T10:43:47.700Z,154.48
2023-06-16T10:44:47.721Z,152.71
2023-06-16T10:45:47.741Z,144.71
2023-06-16T10:46:47.856Z,137.48
2023-06-16T10:47:47.813Z,133.13
2023-06-16T10:48:47.760Z,126.90
2023-06-16T10:49:47.784Z,123.17
2023-06-16T10:50:47.765Z,119.54
2023-06-16T10:51:47.831Z,114.03
2023-06-16T10:52:47.824Z,109.25
2023-06-16T10:53:47.835Z,104.98
2023-06-16T10:54:47.848Z,104.13
2023-06-16T10:55:47.887Z,103.00
2023-06-16T10:56:56.144Z,100.35
2023-06-16T10:57:48.937Z,97.49
2023-06-16T10:58:49.637Z,94.78
2023-06-16T10:59:47.899Z,94.72
2023-06-16T11:00:47.880Z,94.13
2023-06-16T11:01:47.923Z,91.35
2023-06-16T11:02:47.920Z,89.35
2023-06-16T11:03:48.088Z,88.84
2023-06-16T11:04:47.871Z,83.60
2023-06-16T11:05:47.893Z,81.64
2023-06-16T11:06:58.927Z,78.34
2023-06-16T11:07:48.861Z,77.60
2023-06-16T11:08:47.835Z,73.28
2023-06-16T11:09:47.876Z,71.47
2023-06-16T11:10:47.858Z,67.51
2023-06-16T11:11:47.833Z,66.97
2023-06-16T11:12:47.816Z,65.88
2023-06-16T11:13:47.844Z,66.26
2023-06-16T11:14:47.823Z,65.63
2023-06-16T11:15:47.918Z,64.39
2023-06-16T11:16:47.794Z,61.79
2023-06-16T11:17:47.826Z,64.71
2023-06-16T11:18:47.764Z,65.48
2023-06-16T11:19:47.816Z,62.63
2023-06-16T11:20:47.902Z,58.06
2023-06-16T11:21:47.961Z,54.31
2023-06-16T11:22:47.972Z,50.30
2023-06-16T11:23:48.127Z,51.76
2023-06-16T11:24:48.075Z,49.53
2023-06-16T11:25:48.130Z,50.31
2023-06-16T11:26:48.209Z,49.66
2023-06-16T11:27:48.231Z,49.71
2023-06-16T11:28:48.293Z,50.98
2023-06-16T11:29:48.339Z,52.13
2023-06-16T11:30:48.388Z,54.01
2023-06-16T11:31:49.776Z,52.76
2023-06-16T11:32:48.443Z,56.03
2023-06-16T11:33:48.391Z,60.84
2023-06-16T11:34:48.379Z,60.86
2023-06-16T11:35:48.412Z,61.92
2023-06-16T11:36:50.963Z,60.24
2023-06-16T11:37:48.404Z,61.88
2023-06-16T11:38:48.479Z,65.40
2023-06-16T11:39:48.392Z,68.29
2023-06-16T11:40:56.073Z,72.63
2023-06-16T11:42:48.368Z,72.65
2023-06-16T11:43:48.358Z,72.86
2023-06-16T11:44:48.332Z,73.14
2023-06-16T11:45:48.348Z,73.46
2023-06-16T11:46:48.374Z,72.10
2023-06-16T11:47:48.422Z,70.13
2023-06-16T11:48:48.359Z,69.17
2023-06-16T11:49:48.378Z,69.26
2023-06-16T11:50:48.406Z,56.51
2023-06-16T11:51:48.480Z,52.94
2023-06-16T11:52:48.498Z,47.84
2023-06-16T11:53:48.568Z,40.59
2023-06-16T11:54:48.584Z,41.76
2023-06-16T11:55:48.620Z,40.86
2023-06-16T11:56:48.644Z,38.68
2023-06-16T11:57:48.696Z,40.17
2023-06-16T11:58:48.732Z,43.08
2023-06-16T11:59:48.729Z,51.50
2023-06-16T12:00:48.795Z,55.42
2023-06-16T12:01:48.797Z,61.62
2023-06-16T12:02:49.017Z,68.32
2023-06-16T12:04:48.881Z,78.23
2023-06-16T12:05:48.869Z,88.23
2023-06-16T12:06:48.834Z,97.09
2023-06-16T12:07:48.842Z,106.16
2023-06-16T12:08:48.836Z,113.94
2023-06-16T12:09:48.969Z,117.88
2023-06-16T12:10:48.849Z,119.25
2023-06-16T12:11:48.800Z,120.16
2023-06-16T12:12:48.773Z,122.40
2023-06-16T12:13:48.776Z,122.47
2023-06-16T12:14:48.828Z,122.09
2023-06-16T12:15:48.816Z,120.78
2023-06-16T12:16:48.783Z,120.98
2023-06-16T12:18:48.757Z,121.64
2023-06-16T12:19:48.756Z,122.48
2023-06-16T12:20:48.728Z,123.02
2023-06-16T12:21:48.743Z,121.55
2023-06-16T12:22:48.797Z,109.67
2023-06-16T12:23:48.782Z,107.80
2023-06-16T12:24:48.726Z,107.61
2023-06-16T12:25:48.728Z,106.77
2023-06-16T12:26:48.708Z,101.75
2023-06-16T12:27:48.703Z,97.91
2023-06-16T12:28:48.696Z,91.55
2023-06-16T12:29:48.799Z,89.51
2023-06-16T12:30:48.646Z,84.55
2023-06-16T12:31:48.667Z,78.64
2023-06-16T12:32:48.759Z,75.18
2023-06-16T12:33:48.652Z,71.56
2023-06-16T12:34:48.654Z,68.92
2023-06-16T12:35:48.657Z,69.57
2023-06-16T12:36:48.678Z,63.40